»·PEaware :: N723BA KFMN-KABQ

N723BA :: KFMN-KABQ

FLIGHT INFORMATION

Flight Status: Arrived
Operator: Privately registered:
United States
More flights under this callsign
Pilot: Brian A. (9771)
Aircraft: ROCKWELL T-6 TEXAN
(T6)
More flights by this aircraft type
Origin: KFMN Four Corners Regl
United States
Destination: KABQ Albuquerque Intl Sunport
United States
More flights between these airports :: More routes between these airports
Route: +CHACO1 CHACO TANER V187 ABQ
File this flight plan on PilotEdge
Remarks:
Altitude:
(Current/Filed)
11,000ft
Speed:
(Current/Filed)
140kts
Departed: 12-Jan-18 05:55 PM
Arrived: 12-Jan-18 07:01 PM
Distance/Time
Traveled:
129nm/1:06
Distance/Time
To Go:
Arrived

Flight Plot

Page will automatically refresh every two minutes.

Flight plan parsing failed; only flown route is shown


Map Options




Map Legend


Flown Route
Filed Route
Departure Airport
Arrival Airport
Navaid (VOR, NDB)
Fix

Horizontal Profiles

Position Reports

Time Latitude Longitude Heading Altitude Ground
Speed
12-Jan-18 17:33 36.739749 -108.224973 87 5511ft 0kts
12-Jan-18 17:34 36.739749 -108.224973 87 5511ft 0kts
12-Jan-18 17:35 36.739749 -108.224973 87 5511ft 0kts
12-Jan-18 17:36 36.739749 -108.224973 87 5511ft 0kts
12-Jan-18 17:37 36.739749 -108.224973 87 5511ft 0kts
12-Jan-18 17:38 36.739749 -108.224973 87 5511ft 0kts
12-Jan-18 17:39 36.739749 -108.224973 87 5511ft 0kts
12-Jan-18 17:40 36.739749 -108.224973 87 5511ft 0kts
12-Jan-18 17:41 36.739749 -108.224973 87 5511ft 0kts
12-Jan-18 17:42 36.739749 -108.224973 87 5511ft 0kts
12-Jan-18 17:43 36.739749 -108.224973 87 5511ft 0kts
12-Jan-18 17:44 36.739749 -108.224972 88 5511ft 0kts
12-Jan-18 17:45 36.739750 -108.224970 88 5511ft 0kts
12-Jan-18 17:46 36.739750 -108.224969 88 5511ft 0kts
12-Jan-18 17:47 36.739750 -108.224962 90 5511ft 0kts
12-Jan-18 17:48 36.739749 -108.224959 90 5511ft 0kts
12-Jan-18 17:49 36.739749 -108.224957 91 5511ft 0kts
12-Jan-18 17:50 36.739749 -108.224955 91 5511ft 0kts
12-Jan-18 17:51 36.739746 -108.224803 92 5511ft 0kts
12-Jan-18 17:52 36.739746 -108.224800 92 5511ft 0kts
12-Jan-18 17:53 36.739746 -108.224798 93 5511ft 0kts
12-Jan-18 17:54 36.739746 -108.224796 94 5511ft 0kts
12-Jan-18 17:55 36.739746 -108.224794 94 5511ft 0kts
12-Jan-18 17:56 36.739746 -108.224790 95 5511ft 0kts
12-Jan-18 17:57 36.740157 -108.224044 49 5511ft 4kts
12-Jan-18 17:58 36.740799 -108.221436 93 5511ft 5kts
12-Jan-18 17:59 36.740834 -108.218965 96 5511ft 1kts
12-Jan-18 18:00 36.740885 -108.217664 51 5511ft 0kts
12-Jan-18 18:01 36.741576 -108.219184 270 5511ft 42kts
12-Jan-18 18:02 36.734330 -108.244204 223 6165ft 80kts
12-Jan-18 18:03 36.715518 -108.231005 102 7135ft 94kts
12-Jan-18 18:04 36.701460 -108.202625 112 8014ft 104kts
12-Jan-18 18:05 36.693042 -108.169915 91 8667ft 100kts
12-Jan-18 18:06 36.693901 -108.135743 69 9293ft 100kts
12-Jan-18 18:07 36.703220 -108.103377 84 9875ft 112kts
12-Jan-18 18:08 36.689157 -108.068668 129 10535ft 120kts
12-Jan-18 18:09 36.656879 -108.052679 170 11061ft 134kts
12-Jan-18 18:10 36.621212 -108.035122 166 11367ft 149kts
12-Jan-18 18:11 36.578735 -108.022892 183 11376ft 155kts
12-Jan-18 18:12 36.535451 -108.010045 158 11201ft 165kts
12-Jan-18 18:13 36.500079 -108.018541 257 10980ft 133kts
12-Jan-18 18:14 36.491464 -108.061495 260 10756ft 138kts
12-Jan-18 18:15 36.478691 -108.104986 268 10627ft 121kts
12-Jan-18 18:16 36.479948 -108.140297 281 11024ft 101kts
12-Jan-18 18:17 36.480656 -108.174943 283 11497ft 101kts
12-Jan-18 18:18 36.479386 -108.209823 297 11888ft 99kts
12-Jan-18 18:19 36.498538 -108.222597 31 12256ft 118kts
12-Jan-18 18:20 36.471632 -108.180998 149 11700ft 189kts
12-Jan-18 18:21 36.431457 -108.141048 117 11336ft 182kts
12-Jan-18 18:22 36.403031 -108.088829 114 11048ft 175kts
12-Jan-18 18:23 36.379739 -108.036167 113 10994ft 172kts
12-Jan-18 18:24 36.356649 -107.984471 113 10992ft 171kts
12-Jan-18 18:25 36.334176 -107.933921 113 10981ft 162kts
12-Jan-18 18:26 36.308336 -107.888305 124 10981ft 162kts
12-Jan-18 18:27 36.280630 -107.844107 123 10980ft 161kts
12-Jan-18 18:28 36.253068 -107.800146 124 10980ft 161kts
12-Jan-18 18:29 36.222693 -107.759132 136 10985ft 162kts
12-Jan-18 18:30 36.189112 -107.721361 136 10989ft 163kts
12-Jan-18 18:31 36.155556 -107.683701 135 10991ft 163kts
12-Jan-18 18:32 36.121899 -107.645851 135 10992ft 163kts
12-Jan-18 18:33 36.088405 -107.608238 136 10994ft 162kts
12-Jan-18 18:34 36.053983 -107.572197 140 10995ft 162kts
12-Jan-18 18:35 36.018448 -107.537466 140 10996ft 162kts
12-Jan-18 18:36 35.982954 -107.502821 140 10996ft 163kts
12-Jan-18 18:37 35.947289 -107.467977 140 10998ft 163kts
12-Jan-18 18:38 35.911436 -107.432937 140 10999ft 164kts
12-Jan-18 18:39 35.875623 -107.397920 140 11001ft 164kts
12-Jan-18 18:40 35.839861 -107.362954 140 11000ft 163kts
12-Jan-18 18:41 35.810234 -107.333978 140 11000ft 163kts
12-Jan-18 18:42 35.764899 -107.300531 151 11000ft 163kts
12-Jan-18 18:43 35.730995 -107.279761 157 11000ft 163kts
12-Jan-18 18:44 35.683048 -107.252860 157 11002ft 163kts
12-Jan-18 18:45 35.648368 -107.233421 156 11003ft 164kts
12-Jan-18 18:46 35.599963 -107.206271 157 11003ft 164kts
12-Jan-18 18:47 35.565389 -107.186879 157 11002ft 164kts
12-Jan-18 18:48 35.516816 -107.159629 156 11002ft 164kts
12-Jan-18 18:49 35.482247 -107.140228 156 11003ft 164kts
12-Jan-18 18:50 35.441996 -107.113679 152 11001ft 164kts
12-Jan-18 18:51 35.401735 -107.086765 152 11000ft 164kts
12-Jan-18 18:52 35.362188 -107.058606 148 10998ft 164kts
12-Jan-18 18:53 35.323102 -107.029092 148 10996ft 164kts
12-Jan-18 18:54 35.284132 -106.999684 148 10995ft 164kts
12-Jan-18 18:55 35.245192 -106.969214 146 10684ft 177kts
12-Jan-18 18:56 35.212148 -106.928478 113 9988ft 161kts
12-Jan-18 18:57 35.195349 -106.878596 106 9139ft 156kts
12-Jan-18 18:58 35.183833 -106.828070 110 8406ft 148kts
12-Jan-18 18:59 35.170697 -106.780942 105 7825ft 139kts
12-Jan-18 19:00 35.162156 -106.734944 110 7488ft 127kts
12-Jan-18 19:01 35.146417 -106.698102 129 7293ft 124kts
12-Jan-18 19:02 35.132725 -106.659037 103 7310ft 137kts
12-Jan-18 19:03 35.116479 -106.616766 116 7454ft 146kts
12-Jan-18 19:04 35.086755 -106.581070 143 7321ft 157kts
12-Jan-18 19:05 35.050662 -106.568308 161 6121ft 138kts
12-Jan-18 19:06 35.044278 -106.592844 273 5360ft 55kts
12-Jan-18 19:07 35.044295 -106.597167 264 5360ft 9kts
12-Jan-18 19:08 35.044867 -106.602157 308 5360ft 18kts
12-Jan-18 19:09 35.045082 -106.602614 344 5360ft 0kts
12-Jan-18 19:10 35.045677 -106.605720 277 5360ft 20kts
12-Jan-18 19:11 35.045721 -106.612031 282 5360ft 13kts
12-Jan-18 19:12 35.045057 -106.613792 184 5360ft 0kts

Navigation Log

Ident Type
Flight plan parsing failed, navigation log unavailable